Time;durP1;ratioP1;P1;durP2;ratioP2;P2;SDS_P1;SDS_P2;PMS_P1;PMS_P2;Temp;Humidity;BMP_temperature;BMP_pressure;BME280_temperature;BME280_humidity;BME280_pressure;Samples;Min_cycle;Max_cycle;Signal;HPM_P1;HPM_P2
2022/05/09 00:00:17;;;;;;;3.58;2.17;;;17.40;99.90;;;;;;5069450;28;20104;-66
2022/05/09 00:02:44;;;;;;;3.83;1.90;;;17.40;99.90;;;;;;5068064;28;20058;-65
2022/05/09 00:05:15;;;;;;;3.92;2.53;;;17.70;99.90;;;;;;5063361;28;20021;-65
2022/05/09 00:07:42;;;;;;;5.70;2.40;;;17.80;99.90;;;;;;5066302;28;20090;-64
2022/05/09 00:10:11;;;;;;;3.53;2.20;;;18.00;99.90;;;;;;5056839;28;20032;-68
2022/05/09 00:12:38;;;;;;;4.20;1.73;;;17.90;99.90;;;;;;5067089;28;20021;-65
2022/05/09 00:15:08;;;;;;;2.95;1.83;;;17.90;99.90;;;;;;5063387;28;20435;-67
2022/05/09 00:17:35;;;;;;;7.18;2.25;;;17.90;99.90;;;;;;5049980;28;20061;-64
2022/05/09 00:20:02;;;;;;;5.75;1.75;;;17.80;99.90;;;;;;5063336;28;20032;-67
2022/05/09 00:22:29;;;;;;;2.40;1.48;;;17.70;99.90;;;;;;5056663;28;20494;-67
2022/05/09 00:25:00;;;;;;;2.75;1.50;;;17.60;99.90;;;;;;5064791;28;20460;-65
2022/05/09 00:27:27;;;;;;;2.63;1.55;;;17.60;99.90;;;;;;5053097;28;20533;-66
2022/05/09 00:29:54;;;;;;;2.78;1.38;;;17.70;99.90;;;;;;5057390;28;20083;-65
2022/05/09 00:32:21;;;;;;;3.25;1.58;;;17.70;99.90;;;;;;5061225;28;20470;-65
2022/05/09 00:34:48;;;;;;;7.57;2.30;;;17.60;99.90;;;;;;5056167;28;20528;-63
2022/05/09 00:37:15;;;;;;;3.63;2.08;;;17.60;99.90;;;;;;5059636;28;20160;-68
2022/05/09 00:39:42;;;;;;;4.75;2.22;;;17.50;99.90;;;;;;5040193;28;20104;-62
2022/05/09 00:42:13;;;;;;;5.88;2.08;;;17.30;99.90;;;;;;5020122;28;20075;-70
2022/05/09 00:44:41;;;;;;;3.03;1.50;;;17.20;99.90;;;;;;5038208;28;20479;-62
2022/05/09 00:47:09;;;;;;;3.20;1.90;;;17.10;99.90;;;;;;5036042;28;20135;-64
2022/05/09 00:49:50;;;;;;;4.00;1.75;;;17.00;99.90;;;;;;5029963;28;20117;-64
2022/05/09 00:52:25;;;;;;;3.50;1.95;;;17.00;99.90;;;;;;5033143;28;20017;-64
2022/05/09 00:55:01;;;;;;;3.95;2.08;;;17.10;99.90;;;;;;5035066;28;20384;-70
2022/05/09 00:57:43;;;;;;;7.95;2.55;;;17.10;99.90;;;;;;5031729;28;20015;-64
2022/05/09 01:00:17;;;;;;;4.53;2.33;;;17.10;99.90;;;;;;5035223;28;20024;-71
2022/05/09 01:02:49;;;;;;;3.13;1.83;;;17.20;99.90;;;;;;5038435;28;20071;-65
2022/05/09 01:05:16;;;;;;;;;;;17.20;99.90;;;;;;5037799;28;20032;-64
2022/05/09 01:07:44;;;;;;;3.67;2.45;;;17.20;99.90;;;;;;5036833;28;19913;-65
2022/05/09 01:10:14;;;;;;;6.97;2.05;;;17.20;99.90;;;;;;5037237;28;20021;-66
2022/05/09 01:12:42;;;;;;;2.83;2.13;;;17.30;99.90;;;;;;5042802;28;20513;-65
2022/05/09 01:15:13;;;;;;;6.60;4.00;;;17.30;99.90;;;;;;5036129;28;20459;-71
2022/05/09 01:17:41;;;;;;;2.75;2.08;;;17.30;99.90;;;;;;5038948;28;20618;-64
2022/05/09 01:20:11;;;;;;;5.10;1.60;;;17.40;99.90;;;;;;5039538;28;20020;-64
2022/05/09 01:22:40;;;;;;;3.67;1.85;;;17.60;99.90;;;;;;5041779;28;20028;-65
2022/05/09 01:25:09;;;;;;;4.00;1.73;;;17.60;99.90;;;;;;5032946;28;20468;-65
2022/05/09 01:27:40;;;;;;;4.63;2.70;;;17.60;99.90;;;;;;5034111;28;20041;-68
2022/05/09 01:30:43;;;;;;;4.70;2.70;;;17.60;99.90;;;;;;5036122;28;20033;-69
2022/05/09 01:33:13;;;;;;;3.53;2.72;;;17.60;99.90;;;;;;4992026;28;20064;-72
2022/05/09 01:35:52;;;;;;;3.05;2.53;;;17.60;99.90;;;;;;4992741;28;20030;-68
2022/05/09 01:38:44;;;;;;;3.55;2.10;;;17.60;99.90;;;;;;5018332;28;20096;-65
2022/05/09 01:41:11;;;;;;;5.35;2.10;;;17.60;99.90;;;;;;5030110;28;20037;-65
2022/05/09 01:43:41;;;;;;;3.53;2.42;;;17.50;99.90;;;;;;5033543;28;20095;-64
2022/05/09 01:46:18;;;;;;;4.97;3.40;;;17.70;99.90;;;;;;5032570;28;20518;-70
2022/05/09 01:51:31;;;;;;;7.82;6.13;;;17.80;99.90;;;;;;5029622;28;20036;-64
2022/05/09 01:53:58;;;;;;;4.38;3.65;;;18.00;99.90;;;;;;5038548;28;20032;-66
2022/05/09 01:56:28;;;;;;;4.43;2.80;;;17.80;99.90;;;;;;5031437;28;20163;-66
2022/05/09 01:58:56;;;;;;;4.40;2.63;;;17.90;99.90;;;;;;5027699;28;20476;-63
2022/05/09 02:01:26;;;;;;;4.53;2.63;;;17.80;99.90;;;;;;5031374;28;20040;-66
2022/05/09 02:03:53;;;;;;;4.80;3.08;;;17.70;99.90;;;;;;5035190;28;20422;-70
2022/05/09 02:06:23;;;;;;;5.25;2.97;;;17.70;99.90;;;;;;5035871;28;20183;-70
2022/05/09 02:08:50;;;;;;;5.30;3.00;;;17.60;99.90;;;;;;5058553;28;20445;-64
2022/05/09 02:11:17;;;;;;;6.60;3.05;;;17.50;99.90;;;;;;5055571;28;20021;-70
2022/05/09 02:13:44;;;;;;;5.55;3.78;;;17.40;99.90;;;;;;5058162;28;20016;-70
2022/05/09 02:16:11;;;;;;;6.20;5.43;;;17.30;99.90;;;;;;5062931;28;20051;-72
2022/05/09 02:18:39;;;;;;;11.77;8.50;;;17.10;99.90;;;;;;5054066;28;20013;-63
2022/05/09 02:21:06;;;;;;;9.23;7.35;;;17.10;99.90;;;;;;5057479;28;20679;-65
2022/05/09 02:23:34;;;;;;;10.50;7.70;;;17.00;99.90;;;;;;5055347;28;20032;-63
2022/05/09 02:26:02;;;;;;;7.07;5.70;;;17.00;99.90;;;;;;5057570;28;20021;-65
2022/05/09 02:28:30;;;;;;;6.38;3.65;;;17.00;99.90;;;;;;5051377;28;20033;-71
2022/05/09 02:30:57;;;;;;;5.00;3.50;;;17.10;99.90;;;;;;5056992;28;20036;-65
2022/05/09 02:33:24;;;;;;;7.63;4.00;;;17.10;99.90;;;;;;5055069;28;20028;-64
2022/05/09 02:35:51;;;;;;;2.88;2.58;;;17.20;99.90;;;;;;5059707;28;20372;-65
2022/05/09 02:38:18;;;;;;;4.65;2.63;;;17.20;99.90;;;;;;5055059;28;20484;-65
2022/05/09 02:40:45;;;;;;;5.85;4.03;;;17.20;99.90;;;;;;5058757;28;20029;-70
2022/05/09 02:43:13;;;;;;;2.80;2.10;;;17.10;99.90;;;;;;5057799;28;20528;-63
2022/05/09 02:45:40;;;;;;;3.25;2.00;;;17.10;99.90;;;;;;5056719;28;20032;-71
2022/05/09 02:48:09;;;;;;;2.78;1.70;;;17.10;99.90;;;;;;5058557;28;20033;-62
2022/05/09 02:50:36;;;;;;;2.95;1.90;;;17.00;99.90;;;;;;5054659;28;20028;-64
2022/05/09 02:53:04;;;;;;;2.55;1.55;;;16.90;99.90;;;;;;5053998;28;20029;-65
2022/05/09 02:55:31;;;;;;;4.53;2.10;;;16.90;99.90;;;;;;5058838;28;20013;-64
2022/05/09 02:58:00;;;;;;;3.47;2.10;;;16.90;99.90;;;;;;5055429;28;20035;-71
2022/05/09 03:00:31;;;;;;;3.08;2.38;;;17.00;99.90;;;;;;5057114;28;20032;-72
2022/05/09 03:05:45;;;;;;;2.53;2.03;;;17.20;99.90;;;;;;5055259;28;20033;-65
2022/05/09 03:08:14;;;;;;;3.42;2.83;;;17.30;99.90;;;;;;5058194;28;20020;-72
2022/05/09 03:10:42;;;;;;;3.28;1.83;;;17.30;99.90;;;;;;5053334;28;20111;-64
2022/05/09 03:13:12;;;;;;;3.60;1.88;;;17.30;99.90;;;;;;5059990;28;20020;-65
2022/05/09 03:15:41;;;;;;;3.88;1.60;;;17.30;99.90;;;;;;5057972;28;20013;-64
2022/05/09 03:18:09;;;;;;;3.97;2.17;;;17.40;99.90;;;;;;5057340;28;20062;-70
2022/05/09 03:20:36;;;;;;;3.25;1.85;;;17.40;99.90;;;;;;5060212;28;20073;-64
2022/05/09 03:23:05;;;;;;;4.10;2.28;;;17.40;99.90;;;;;;5061700;28;20021;-60
2022/05/09 03:25:35;;;;;;;3.13;2.13;;;17.50;99.90;;;;;;5063234;28;20094;-71
2022/05/09 03:28:04;;;;;;;5.07;3.58;;;17.80;99.90;;;;;;5059501;28;20025;-70
2022/05/09 03:30:32;;;;;;;3.35;2.40;;;18.10;99.90;;;;;;5058280;28;20452;-68
2022/05/09 03:32:58;;;;;;;3.60;2.00;;;18.50;99.90;;;;;;5057355;28;20379;-62
2022/05/09 03:35:26;;;;;;;2.60;2.05;;;18.80;99.90;;;;;;5068021;28;20025;-69
2022/05/09 03:37:53;;;;;;;5.88;4.55;;;19.00;99.90;;;;;;5056229;28;20049;-63
2022/05/09 03:40:21;;;;;;;6.22;5.40;;;19.00;99.90;;;;;;5063735;28;20375;-64
2022/05/09 03:42:48;;;;;;;9.52;8.30;;;18.80;99.90;;;;;;5062197;28;20036;-63
2022/05/09 03:45:16;;;;;;;10.00;9.20;;;18.80;99.90;;;;;;5064093;28;20021;-60
2022/05/09 03:47:43;;;;;;;5.03;4.03;;;18.90;99.90;;;;;;5056621;28;20060;-63
2022/05/09 03:50:13;;;;;;;2.22;1.80;;;18.80;99.90;;;;;;5065575;28;20443;-61
2022/05/09 03:52:40;;;;;;;3.40;1.83;;;18.70;99.90;;;;;;5060973;28;20061;-62
2022/05/09 03:55:07;;;;;;;2.47;1.85;;;18.60;99.90;;;;;;5059852;28;20039;-64
2022/05/09 03:57:43;;;;;;;2.53;2.20;;;18.40;99.90;;;;;;5059699;28;20387;-65
2022/05/09 04:00:10;;;;;;;1.67;1.38;;;18.10;99.90;;;;;;5058714;28;20013;-65
2022/05/09 04:02:37;;;;;;;2.22;1.85;;;17.80;99.90;;;;;;5060552;28;20028;-61
2022/05/09 04:05:06;;;;;;;2.20;1.70;;;17.70;99.90;;;;;;5057636;28;20024;-62
2022/05/09 04:07:33;;;;;;;5.20;2.47;;;17.60;99.90;;;;;;5063979;28;20135;-61
2022/05/09 04:10:00;;;;;;;2.42;1.70;;;17.60;99.90;;;;;;5060681;28;20039;-70
2022/05/09 04:12:27;;;;;;;2.83;1.93;;;17.70;99.90;;;;;;4359056;28;10000740;-64
2022/05/09 04:17:39;;;;;;;2.80;1.50;;;17.80;99.90;;;;;;5065039;28;20044;-62
2022/05/09 04:20:09;;;;;;;3.20;1.60;;;18.00;99.90;;;;;;5052135;28;20029;-64
2022/05/09 04:22:35;;;;;;;3.42;1.45;;;18.00;99.90;;;;;;5067064;28;20767;-69
2022/05/09 04:25:03;;;;;;;2.72;1.35;;;18.00;99.90;;;;;;5062008;28;20060;-63
2022/05/09 04:27:31;;;;;;;2.22;1.88;;;18.00;99.90;;;;;;5057082;28;20023;-64
2022/05/09 04:29:58;;;;;;;3.13;1.50;;;17.90;99.90;;;;;;5055468;28;20395;-63
2022/05/09 04:32:25;;;;;;;4.95;1.60;;;17.80;99.90;;;;;;5066030;28;20704;-62
2022/05/09 04:34:52;;;;;;;2.47;1.50;;;17.90;99.90;;;;;;5054261;28;20081;-64
2022/05/09 04:37:19;;;;;;;1.98;1.77;;;17.90;99.90;;;;;;5064120;28;20647;-65
2022/05/09 04:39:48;;;;;;;2.05;1.63;;;17.90;99.90;;;;;;5070037;28;20029;-62
2022/05/09 04:42:14;;;;;;;2.25;1.60;;;17.90;99.90;;;;;;5069675;28;20054;-62
2022/05/09 04:44:43;;;;;;;2.90;1.70;;;17.90;99.90;;;;;;5068655;28;20058;-63
2022/05/09 04:47:10;;;;;;;3.90;1.60;;;17.90;99.90;;;;;;5069359;28;20024;-62
2022/05/09 04:49:36;;;;;;;1.73;1.58;;;18.00;99.90;;;;;;5051486;28;20174;-64
2022/05/09 04:52:04;;;;;;;2.75;2.00;;;18.00;99.90;;;;;;5069554;28;20115;-65
2022/05/09 04:54:31;;;;;;;1.50;1.20;;;17.90;99.90;;;;;;5069253;28;20054;-69
2022/05/09 04:56:57;;;;;;;3.15;1.85;;;17.80;99.90;;;;;;5068537;28;20414;-64
2022/05/09 04:59:24;;;;;;;2.88;1.75;;;17.80;99.90;;;;;;5071339;28;20098;-65
2022/05/09 05:01:51;;;;;;;4.20;1.75;;;17.80;99.90;;;;;;5069239;28;20020;-65
2022/05/09 05:04:18;;;;;;;3.70;1.50;;;17.70;99.90;;;;;;5069956;28;20021;-64
2022/05/09 05:06:46;;;;;;;1.67;1.50;;;17.60;99.90;;;;;;5075522;28;20123;-65
2022/05/09 05:09:12;;;;;;;1.95;1.60;;;17.50;99.90;;;;;;5069455;28;20063;-64
2022/05/09 05:11:39;;;;;;;3.50;1.60;;;17.50;99.90;;;;;;5071790;28;20027;-69
2022/05/09 05:14:06;;;;;;;2.88;1.38;;;17.70;99.90;;;;;;5069666;28;20032;-62
2022/05/09 05:19:19;;;;;;;3.00;1.30;;;17.60;99.90;;;;;;5069678;28;20429;-64
2022/05/09 05:21:46;;;;;;;3.05;1.10;;;17.60;99.90;;;;;;5068563;28;20028;-67
2022/05/09 05:24:12;;;;;;;1.67;1.05;;;17.60;99.90;;;;;;5068780;28;20036;-69
2022/05/09 05:26:40;;;;;;;5.88;1.05;;;17.50;99.90;;;;;;5066643;28;20109;-70
2022/05/09 05:29:07;;;;;;;3.70;1.20;;;17.50;99.90;;;;;;5067175;28;20143;-66
2022/05/09 05:31:34;;;;;;;1.83;0.93;;;17.50;99.90;;;;;;5063621;28;20092;-66
2022/05/09 05:34:02;;;;;;;1.83;0.93;;;17.50;99.90;;;;;;5069301;28;20170;-65
2022/05/09 05:36:29;;;;;;;1.27;0.88;;;17.40;99.90;;;;;;5064158;28;20020;-66
2022/05/09 05:38:56;;;;;;;1.55;0.98;;;17.40;99.90;;;;;;5052223;28;20044;-69
2022/05/09 05:41:23;;;;;;;2.58;0.90;;;17.40;99.90;;;;;;5052318;28;20040;-67
2022/05/09 05:43:50;;;;;;;3.13;1.50;;;17.30;99.90;;;;;;5052087;28;20028;-70
2022/05/09 05:46:17;;;;;;;4.05;2.10;;;17.30;99.90;;;;;;5050393;28;20513;-65
2022/05/09 05:48:44;;;;;;;3.40;1.60;;;17.30;99.90;;;;;;5046323;28;20192;-66
2022/05/09 05:51:14;;;;;;;3.17;1.10;;;17.10;99.90;;;;;;5056273;28;20028;-65
2022/05/09 05:53:42;;;;;;;2.00;1.05;;;17.20;99.90;;;;;;5054214;28;20029;-65
2022/05/09 05:56:09;;;;;;;2.80;1.30;;;17.20;99.90;;;;;;5048917;28;20036;-63
2022/05/09 05:58:35;;;;;;;3.08;1.85;;;17.20;99.90;;;;;;5050038;28;20488;-63
2022/05/09 06:01:02;;;;;;;3.67;2.85;;;17.10;99.90;;;;;;5050607;28;20063;-63
2022/05/09 06:03:29;;;;;;;2.53;1.63;;;17.10;99.90;;;;;;5052709;28;20033;-64
2022/05/09 06:05:56;;;;;;;1.80;1.20;;;17.10;99.90;;;;;;5049235;28;20111;-65
2022/05/09 06:08:23;;;;;;;2.15;1.10;;;17.10;99.90;;;;;;5053517;28;20063;-63
2022/05/09 06:10:50;;;;;;;3.28;1.98;;;17.10;99.90;;;;;;5051457;28;20048;-68
2022/05/09 06:13:17;;;;;;;1.30;1.00;;;17.10;99.90;;;;;;5051432;28;20039;-65
2022/05/09 06:15:44;;;;;;;1.42;1.33;;;17.10;99.90;;;;;;5051406;28;20847;-64
2022/05/09 06:18:15;;;;;;;2.80;1.13;;;17.00;99.90;;;;;;5051891;28;20040;-66
2022/05/09 06:20:44;;;;;;;2.85;1.15;;;16.90;99.90;;;;;;5050436;28;20017;-67
2022/05/09 06:23:13;;;;;;;3.22;1.40;;;16.90;99.90;;;;;;5052533;28;20021;-67
2022/05/09 06:25:43;;;;;;;1.17;0.73;;;16.90;99.90;;;;;;5050768;28;20408;-63
2022/05/09 06:28:10;;;;;;;2.22;0.88;;;16.90;99.90;;;;;;5049990;28;20128;-64
2022/05/09 06:30:37;;;;;;;1.95;1.00;;;16.80;99.90;;;;;;5050228;28;20020;-64
2022/05/09 06:33:04;;;;;;;2.50;0.82;;;16.80;99.90;;;;;;5052768;28;20100;-64
2022/05/09 06:35:31;;;;;;;3.10;1.10;;;16.80;99.90;;;;;;5054567;28;20131;-63
2022/05/09 06:38:04;;;;;;;4.13;1.88;;;16.80;99.90;;;;;;5052651;28;20200;-64
2022/05/09 06:40:31;;;;;;;;;;;16.80;99.90;;;;;;5055294;28;20029;-68
2022/05/09 06:42:58;;;;;;;2.95;1.98;;;16.70;99.90;;;;;;5053668;28;19935;-67
2022/05/09 06:45:26;;;;;;;3.15;1.40;;;16.60;99.90;;;;;;5051047;28;20091;-64
2022/05/09 06:47:55;;;;;;;3.45;1.30;;;16.60;99.90;;;;;;5054440;28;20035;-65
2022/05/09 06:50:25;;;;;;;2.45;1.45;;;16.50;99.90;;;;;;5050116;28;20108;-64
2022/05/09 06:52:52;;;;;;;4.20;1.60;;;16.50;99.90;;;;;;5051187;28;20036;-67
2022/05/09 06:55:19;;;;;;;3.38;1.92;;;16.30;99.90;;;;;;5050822;28;20429;-65
2022/05/09 06:57:46;;;;;;;1.85;1.30;;;16.30;99.90;;;;;;5047205;28;20044;-64
2022/05/09 07:00:20;;;;;;;1.83;1.10;;;16.30;99.90;;;;;;5033469;28;20033;-67
2022/05/09 07:02:48;;;;;;;3.05;2.10;;;16.30;99.90;;;;;;5052686;28;20051;-64
2022/05/09 07:05:17;;;;;;;3.22;1.80;;;16.30;99.90;;;;;;5035251;28;20078;-67
2022/05/09 07:07:45;;;;;;;1.52;1.17;;;16.20;99.90;;;;;;5051580;28;20032;-62
2022/05/09 07:10:15;;;;;;;3.15;1.48;;;16.20;99.90;;;;;;5050370;28;20028;-67
2022/05/09 07:12:43;;;;;;;5.07;1.63;;;16.20;99.90;;;;;;5049045;28;20027;-63
2022/05/09 07:15:13;;;;;;;1.35;1.25;;;16.20;99.90;;;;;;5053090;28;20020;-62
2022/05/09 07:17:40;;;;;;;2.22;1.05;;;16.20;99.90;;;;;;5050677;28;20036;-61
2022/05/09 07:20:07;;;;;;;2.35;1.00;;;16.10;99.90;;;;;;5050732;28;20025;-66
2022/05/09 07:22:34;;;;;;;2.67;1.33;;;16.10;99.90;;;;;;5053160;28;20115;-65
2022/05/09 07:25:02;;;;;;;2.33;1.40;;;16.10;99.90;;;;;;5050107;28;20025;-66
2022/05/09 07:27:30;;;;;;;2.22;1.30;;;16.00;99.90;;;;;;5050785;28;20565;-65
2022/05/09 07:29:58;;;;;;;2.88;1.40;;;16.00;99.90;;;;;;5051011;28;20060;-64
2022/05/09 07:32:25;;;;;;;1.50;1.15;;;15.90;99.90;;;;;;5053963;28;20060;-64
2022/05/09 07:34:52;;;;;;;3.45;1.40;;;15.80;99.90;;;;;;5048457;28;20990;-64
2022/05/09 07:37:21;;;;;;;1.60;1.15;;;15.80;99.90;;;;;;5059821;28;20132;-64
2022/05/09 07:39:48;;;;;;;2.95;1.48;;;15.80;99.90;;;;;;5059637;28;20013;-64
2022/05/09 07:42:15;;;;;;;2.88;1.13;;;15.80;99.90;;;;;;5063586;28;20028;-67
2022/05/09 07:44:42;;;;;;;3.67;1.48;;;15.80;99.90;;;;;;5065846;28;20126;-64
2022/05/09 07:47:09;;;;;;;3.38;1.73;;;15.90;99.90;;;;;;5062506;28;20469;-66
2022/05/09 07:49:36;;;;;;;2.53;1.50;;;15.80;99.90;;;;;;5067104;28;20027;-66
2022/05/09 07:52:05;;;;;;;2.17;1.60;;;15.70;99.90;;;;;;5059777;28;20024;-62
2022/05/09 07:54:33;;;;;;;4.22;1.45;;;15.70;99.90;;;;;;5061886;28;20703;-63
2022/05/09 07:56:59;;;;;;;2.92;1.63;;;15.70;99.90;;;;;;5057981;28;20028;-64
2022/05/09 07:59:26;;;;;;;2.28;1.67;;;15.70;99.90;;;;;;5067073;28;20120;-65
2022/05/09 08:01:53;;;;;;;4.78;2.42;;;15.70;99.90;;;;;;5060659;28;20105;-63
2022/05/09 08:04:20;;;;;;;3.83;1.77;;;15.70;99.90;;;;;;5067122;28;20024;-65
2022/05/09 08:06:47;;;;;;;3.78;1.73;;;15.70;99.90;;;;;;5042760;28;20467;-63
2022/05/09 08:09:15;;;;;;;3.58;2.10;;;15.60;99.90;;;;;;5071419;28;20032;-66
2022/05/09 08:11:43;;;;;;;2.50;1.95;;;15.60;99.90;;;;;;5064131;28;20222;-64
2022/05/09 08:14:11;;;;;;;4.88;2.33;;;15.60;99.90;;;;;;5063982;28;20020;-61
2022/05/09 08:16:39;;;;;;;4.90;2.70;;;15.60;99.90;;;;;;5067527;28;20024;-63
2022/05/09 08:19:06;;;;;;;5.10;2.40;;;15.50;99.90;;;;;;5068161;28;20487;-65
2022/05/09 08:21:33;;;;;;;4.32;2.30;;;15.40;99.90;;;;;;5066337;28;20170;-65
2022/05/09 08:24:00;;;;;;;5.60;2.53;;;15.40;99.90;;;;;;5072755;28;20024;-65
2022/05/09 08:26:27;;;;;;;3.75;2.60;;;15.30;99.90;;;;;;5066328;28;20024;-64
2022/05/09 08:28:56;;;;;;;4.72;2.40;;;15.40;99.90;;;;;;5060254;28;20032;-71
2022/05/09 08:31:23;;;;;;;3.65;2.90;;;15.40;99.90;;;;;;5064592;28;20029;-66
2022/05/09 08:33:52;;;;;;;3.50;2.83;;;15.30;99.90;;;;;;5062694;28;20154;-66
2022/05/09 08:39:08;;;;;;;3.25;2.45;;;15.20;99.90;;;;;;5055347;28;20132;-66
2022/05/09 08:42:05;;;;;;;3.92;2.90;;;15.20;99.90;;;;;;5053716;28;20029;-66
2022/05/09 08:44:51;;;;;;;3.72;2.38;;;15.20;99.90;;;;;;5048535;28;20474;-68
2022/05/09 08:47:59;;;;;;;3.97;3.40;;;15.20;99.90;;;;;;5044536;28;20494;-63
2022/05/09 08:50:33;;;;;;;5.40;4.13;;;15.20;99.90;;;;;;4979420;28;20462;-65
2022/05/09 08:53:22;;;;;;;5.63;4.03;;;15.20;99.90;;;;;;4978850;28;20034;-64
2022/05/09 08:55:51;;;;;;;8.63;4.65;;;15.20;99.90;;;;;;4976465;28;20124;-65
2022/05/09 08:58:37;;;;;;;5.03;4.07;;;15.30;99.90;;;;;;4979426;28;20042;-65
2022/05/09 09:01:12;;;;;;;6.15;4.47;;;15.20;99.90;;;;;;4979506;28;20571;-63
2022/05/09 09:03:45;;;;;;;6.60;3.92;;;15.30;99.90;;;;;;4978230;28;20026;-67
2022/05/09 09:06:40;;;;;;;4.38;3.25;;;15.30;99.90;;;;;;4980201;28;20038;-68
2022/05/09 09:09:25;;;;;;;5.05;3.40;;;15.30;99.90;;;;;;4978409;28;20161;-65
2022/05/09 09:12:03;;;;;;;7.05;4.05;;;15.40;99.90;;;;;;4979707;28;20559;-66
2022/05/09 09:14:47;;;;;;;4.72;3.75;;;15.40;99.90;;;;;;4982181;28;20129;-64
2022/05/09 09:17:29;;;;;;;4.25;3.38;;;15.40;99.90;;;;;;4979706;28;20076;-67
2022/05/09 09:20:25;;;;;;;5.40;3.60;;;15.40;99.90;;;;;;4978599;28;20567;-66
2022/05/09 09:23:04;;;;;;;5.85;3.15;;;15.40;99.90;;;;;;4980682;28;20153;-65
2022/05/09 09:25:59;;;;;;;6.60;4.32;;;15.40;99.90;;;;;;4980367;28;20040;-65
2022/05/09 09:28:46;;;;;;;6.60;3.92;;;15.50;99.90;;;;;;5053116;28;20040;-68
2022/05/09 09:31:19;;;;;;;3.78;2.97;;;15.40;99.90;;;;;;5052514;28;20025;-67
2022/05/09 09:34:11;;;;;;;6.65;4.28;;;15.40;99.90;;;;;;5052547;28;20025;-67
2022/05/09 09:36:51;;;;;;;4.25;3.83;;;15.40;99.90;;;;;;5034334;28;20028;-66
2022/05/09 09:39:20;;;;;;;5.53;3.83;;;15.40;99.90;;;;;;5060653;28;20565;-66
2022/05/09 09:41:50;;;;;;;4.82;3.88;;;15.40;99.90;;;;;;5056015;28;20496;-68
2022/05/09 09:44:21;;;;;;;5.25;4.35;;;15.30;99.90;;;;;;5057545;28;20299;-67
2022/05/09 09:47:06;;;;;;;6.82;4.53;;;15.30;99.90;;;;;;5052625;28;20520;-67
2022/05/09 09:49:39;;;;;;;5.10;3.53;;;15.20;99.90;;;;;;5053802;28;20029;-67
2022/05/09 09:52:15;;;;;;;;;;;15.20;99.90;;;;;;5056405;28;20564;-68
2022/05/09 09:54:55;;;;;;;6.75;3.50;;;15.10;99.90;;;;;;5053214;28;19916;-67
2022/05/09 09:57:30;;;;;;;5.05;3.40;;;15.10;99.90;;;;;;5052279;28;20025;-67
2022/05/09 10:00:11;;;;;;;7.70;3.28;;;15.10;99.90;;;;;;5052971;28;20040;-69
2022/05/09 10:02:38;;;;;;;5.22;3.42;;;15.10;99.90;;;;;;5053061;28;20021;-68
2022/05/09 10:05:12;;;;;;;7.35;3.63;;;15.10;99.90;;;;;;5051813;28;20021;-66
2022/05/09 10:07:43;;;;;;;5.38;3.35;;;15.10;99.90;;;;;;5051992;28;20115;-69
2022/05/09 10:10:13;;;;;;;6.43;3.75;;;15.20;99.90;;;;;;5051529;28;20039;-68
2022/05/09 10:12:48;;;;;;;5.38;3.25;;;15.20;99.90;;;;;;5052207;28;20058;-66
2022/05/09 10:15:24;;;;;;;4.60;2.45;;;15.20;99.90;;;;;;5050968;28;20080;-67
2022/05/09 10:17:52;;;;;;;3.90;2.17;;;15.20;99.90;;;;;;5050784;28;20695;-67
2022/05/09 10:20:41;;;;;;;4.47;2.47;;;15.20;99.90;;;;;;5053850;28;20086;-67
2022/05/09 10:26:14;;;;;;;3.17;2.13;;;15.10;99.90;;;;;;5054463;28;20097;-64
2022/05/09 10:28:48;;;;;;;3.38;2.17;;;15.10;99.90;;;;;;5054103;28;20028;-67
2022/05/09 10:31:40;;;;;;;3.95;2.20;;;15.10;99.90;;;;;;5052071;28;20028;-64
2022/05/09 10:34:27;;;;;;;2.60;2.17;;;15.00;99.90;;;;;;4971815;28;20550;-65
2022/05/09 10:37:05;;;;;;;5.60;2.17;;;14.90;99.90;;;;;;5017891;22;20016;-67
2022/05/09 10:39:37;;;;;;;3.92;2.15;;;14.90;99.90;;;;;;5044227;28;20025;-68
2022/05/09 10:42:15;;;;;;;2.17;1.23;;;14.90;99.90;;;;;;5043901;28;20021;-66
2022/05/09 10:45:02;;;;;;;5.03;1.90;;;14.90;99.90;;;;;;5046810;28;20052;-68
2022/05/09 10:47:34;;;;;;;2.70;1.73;;;15.00;99.90;;;;;;5053736;28;20024;-67
2022/05/09 10:50:16;;;;;;;3.38;2.10;;;15.00;99.90;;;;;;5049438;28;20029;-66
2022/05/09 10:53:06;;;;;;;3.13;1.70;;;15.00;99.90;;;;;;5047475;28;20036;-68
2022/05/09 10:55:57;;;;;;;2.00;1.40;;;14.90;99.90;;;;;;5052182;28;20220;-66
2022/05/09 10:58:42;;;;;;;2.40;1.33;;;14.90;99.90;;;;;;5051615;28;20024;-65
2022/05/09 11:01:14;;;;;;;3.45;1.60;;;14.90;99.90;;;;;;5050141;28;20028;-68
2022/05/09 11:03:41;;;;;;;4.13;1.65;;;14.90;99.90;;;;;;5051266;28;20032;-66
2022/05/09 11:06:32;;;;;;;1.45;1.13;;;14.90;99.90;;;;;;5048974;28;20659;-65
2022/05/09 11:09:20;;;;;;;3.40;1.05;;;14.90;99.90;;;;;;5052865;28;20060;-65
2022/05/09 11:11:57;;;;;;;3.88;1.50;;;14.80;99.90;;;;;;5047142;28;20063;-66
2022/05/09 11:14:33;;;;;;;2.92;1.38;;;14.80;99.90;;;;;;5054979;28;20062;-69
2022/05/09 11:17:22;;;;;;;2.83;1.25;;;14.80;99.90;;;;;;5051175;28;20017;-66
2022/05/09 11:20:10;;;;;;;1.88;1.35;;;14.80;99.90;;;;;;5052105;28;20036;-68
2022/05/09 11:23:14;;;;;;;1.75;1.40;;;14.80;99.90;;;;;;5053419;28;20496;-66
2022/05/09 11:25:42;;;;;;;2.05;1.42;;;14.80;99.90;;;;;;4989139;28;20049;-66
2022/05/09 11:28:37;;;;;;;1.77;1.35;;;14.80;99.90;;;;;;4986943;28;20121;-68
2022/05/09 11:31:16;;;;;;;1.20;1.10;;;14.80;99.90;;;;;;4993197;28;20571;-66
2022/05/09 11:34:09;;;;;;;2.30;1.42;;;14.80;99.90;;;;;;4987548;28;20038;-66
2022/05/09 11:36:44;;;;;;;5.85;1.50;;;14.70;99.90;;;;;;4984477;28;20030;-66
2022/05/09 11:39:29;;;;;;;2.65;1.73;;;14.70;99.90;;;;;;4994143;28;20590;-70
2022/05/09 11:45:22;;;;;;;2.20;1.58;;;14.50;99.90;;;;;;4991684;28;20076;-69
2022/05/09 11:48:06;;;;;;;2.13;1.60;;;14.50;99.90;;;;;;4984995;28;20041;-69
2022/05/09 11:50:58;;;;;;;2.50;1.60;;;14.40;99.90;;;;;;4971914;28;20078;-69
2022/05/09 11:53:28;;;;;;;2.90;1.30;;;14.30;99.90;;;;;;4974000;28;20540;-67
2022/05/09 11:55:56;;;;;;;2.28;1.30;;;14.30;99.90;;;;;;4968236;28;20517;-70
2022/05/09 11:58:25;;;;;;;1.40;1.13;;;14.30;99.90;;;;;;4967033;28;20118;-67
2022/05/09 12:00:53;;;;;;;1.20;1.10;;;14.30;99.90;;;;;;4977144;28;20030;-68
2022/05/09 12:03:42;;;;;;;2.00;1.20;;;14.30;99.90;;;;;;5023589;28;20055;-68
2022/05/09 12:06:27;;;;;;;1.88;1.30;;;14.30;99.90;;;;;;5039340;28;20029;-65
2022/05/09 12:08:56;;;;;;;2.67;1.63;;;14.30;99.90;;;;;;5042876;28;20021;-70
2022/05/09 12:11:43;;;;;;;5.72;1.45;;;14.20;99.90;;;;;;5043178;28;20025;-67
2022/05/09 12:14:10;;;;;;;2.00;1.48;;;14.20;99.90;;;;;;5046248;28;20025;-68
2022/05/09 12:16:37;;;;;;;2.83;1.70;;;14.20;99.90;;;;;;5038661;28;20191;-70
2022/05/09 12:19:31;;;;;;;4.45;2.75;;;14.20;99.90;;;;;;5043342;28;20025;-67
2022/05/09 12:22:34;;;;;;;2.75;1.80;;;14.20;99.90;;;;;;5039077;28;20029;-65
2022/05/09 12:25:05;;;;;;;2.75;1.60;;;14.20;99.90;;;;;;5035518;28;20021;-70
2022/05/09 12:28:06;;;;;;;2.88;1.60;;;14.20;99.90;;;;;;5034464;28;20478;-69
2022/05/09 12:30:43;;;;;;;5.15;1.67;;;14.10;99.90;;;;;;4971274;28;20030;-70
2022/05/09 12:33:36;;;;;;;4.03;1.48;;;14.20;99.90;;;;;;4968570;28;20054;-67
2022/05/09 12:36:14;;;;;;;4.72;2.00;;;14.20;99.90;;;;;;4975525;28;20049;-65
2022/05/09 12:38:43;;;;;;;2.92;1.50;;;14.30;99.90;;;;;;4984857;28;20057;-66
2022/05/09 12:41:13;;;;;;;5.03;1.60;;;14.30;99.90;;;;;;4988676;28;20030;-71
2022/05/09 12:43:45;;;;;;;1.95;1.13;;;14.30;99.90;;;;;;4987209;28;20042;-64
2022/05/09 12:46:24;;;;;;;3.30;1.38;;;14.30;99.90;;;;;;4987364;28;20339;-66
2022/05/09 12:48:55;;;;;;;3.60;1.30;;;14.30;99.90;;;;;;4984265;28;20404;-64
2022/05/09 12:51:23;;;;;;;1.65;1.40;;;14.30;99.90;;;;;;4988598;28;20045;-65
2022/05/09 12:53:51;;;;;;;2.15;1.70;;;14.30;99.90;;;;;;4984607;28;20064;-67
2022/05/09 12:56:24;;;;;;;2.20;1.40;;;14.30;99.90;;;;;;4985557;28;20034;-67
2022/05/09 12:59:09;;;;;;;4.55;1.67;;;14.30;99.90;;;;;;4975584;28;20037;-65
2022/05/09 13:01:41;;;;;;;3.17;1.60;;;14.30;99.90;;;;;;4983925;28;20042;-67
2022/05/09 13:04:26;;;;;;;1.88;1.45;;;14.30;99.90;;;;;;4982925;28;20038;-70
2022/05/09 13:07:03;;;;;;;4.90;1.50;;;14.40;99.90;;;;;;4992797;28;20495;-67
2022/05/09 13:09:36;;;;;;;2.70;1.67;;;14.40;99.90;;;;;;5038437;28;20040;-67
2022/05/09 13:12:23;;;;;;;1.33;1.23;;;14.40;99.90;;;;;;5036715;28;20017;-70
2022/05/09 13:15:09;;;;;;;2.10;1.35;;;14.40;99.90;;;;;;5042432;28;20017;-68
2022/05/09 13:17:38;;;;;;;3.20;1.30;;;14.40;99.90;;;;;;5040856;28;20117;-70
2022/05/09 13:20:12;;;;;;;1.90;1.20;;;14.40;99.90;;;;;;5040663;28;20392;-68
2022/05/09 13:22:55;;;;;;;1.50;1.40;;;14.40;99.90;;;;;;5038617;28;20040;-66
2022/05/09 13:25:32;;;;;;;1.88;1.13;;;14.40;99.90;;;;;;5040668;28;20096;-70
2022/05/09 13:28:07;;;;;;;1.52;1.27;;;14.40;99.90;;;;;;5043326;28;20036;-67
2022/05/09 13:30:37;;;;;;;2.53;1.55;;;14.40;99.90;;;;;;5042918;28;20052;-67
2022/05/09 13:33:04;;;;;;;1.65;1.15;;;14.40;99.90;;;;;;5039271;28;20063;-70